createdAt,value
2023-09-28T00:00:33.841Z,30.50
2023-09-28T00:03:02.256Z,35.00
2023-09-28T00:05:29.759Z,30.73
2023-09-28T00:07:57.112Z,31.30
2023-09-28T00:10:25.038Z,30.97
2023-09-28T00:12:53.471Z,31.70
2023-09-28T00:15:20.744Z,29.97
2023-09-28T00:17:52.750Z,30.57
2023-09-28T00:20:22.095Z,28.13
2023-09-28T00:22:50.313Z,29.40
2023-09-28T00:25:18.052Z,30.20
2023-09-28T00:27:46.329Z,27.03
2023-09-28T00:30:14.766Z,27.87
2023-09-28T00:32:45.002Z,28.47
2023-09-28T00:35:12.509Z,29.07
2023-09-28T00:37:39.855Z,28.60
2023-09-28T00:40:20.683Z,26.40
2023-09-28T00:42:48.449Z,26.03
2023-09-28T00:45:15.626Z,25.93
2023-09-28T00:47:43.889Z,25.37
2023-09-28T00:50:12.055Z,24.47
2023-09-28T00:52:41.956Z,24.90
2023-09-28T00:55:10.308Z,21.77
2023-09-28T00:57:40.144Z,22.63
2023-09-28T01:00:19.397Z,23.57
2023-09-28T01:02:52.935Z,21.53
2023-09-28T01:05:20.844Z,23.53
2023-09-28T01:07:48.297Z,21.03
2023-09-28T01:10:17.124Z,21.97
2023-09-28T01:12:44.239Z,19.47
2023-09-28T01:15:14.339Z,23.53
2023-09-28T01:17:42.263Z,20.00
2023-09-28T01:20:17.266Z,21.87
2023-09-28T01:22:44.871Z,21.50
2023-09-28T01:25:12.007Z,21.57
2023-09-28T01:27:39.260Z,21.60
2023-09-28T01:30:06.708Z,19.23
2023-09-28T01:32:33.859Z,18.70
2023-09-28T01:35:01.104Z,17.90
2023-09-28T01:37:31.097Z,17.83
2023-09-28T01:39:58.236Z,18.50
2023-09-28T01:42:25.368Z,17.80
2023-09-28T01:44:52.487Z,19.60
2023-09-28T01:47:19.671Z,17.20
2023-09-28T01:49:46.826Z,19.17
2023-09-28T01:52:13.997Z,17.73
2023-09-28T01:54:41.172Z,19.00
2023-09-28T01:57:08.939Z,17.33
2023-09-28T01:59:36.062Z,17.63
2023-09-28T02:02:03.281Z,15.67
2023-09-28T02:04:30.622Z,18.03
2023-09-28T02:06:57.772Z,16.00
2023-09-28T02:09:26.312Z,18.67
2023-09-28T02:11:53.429Z,16.27
2023-09-28T02:14:21.043Z,16.80
2023-09-28T02:16:48.351Z,14.27
2023-09-28T02:19:17.075Z,15.60
2023-09-28T02:21:44.673Z,13.90
2023-09-28T02:24:12.373Z,15.63
2023-09-28T02:26:39.903Z,15.37
2023-09-28T02:29:07.361Z,15.33
2023-09-28T02:31:35.507Z,14.87
2023-09-28T02:34:03.621Z,14.40
2023-09-28T02:36:34.076Z,14.40
2023-09-28T02:39:01.491Z,14.00
2023-09-28T02:41:28.757Z,13.00
2023-09-28T02:43:56.163Z,14.57
2023-09-28T02:46:26.031Z,14.03
2023-09-28T02:48:53.238Z,15.60
2023-09-28T02:51:20.381Z,14.83
2023-09-28T02:53:47.547Z,14.20
2023-09-28T02:56:14.771Z,14.10
2023-09-28T02:58:42.012Z,14.83
2023-09-28T03:01:09.857Z,15.40
2023-09-28T03:03:37.073Z,13.87
2023-09-28T03:06:05.587Z,15.47
2023-09-28T03:08:32.807Z,15.63
2023-09-28T03:10:59.978Z,14.07
2023-09-28T03:13:27.366Z,14.07
2023-09-28T03:15:55.692Z,13.37
2023-09-28T03:18:23.092Z,13.83
2023-09-28T03:20:50.238Z,12.97
2023-09-28T03:23:17.406Z,14.57
2023-09-28T03:25:44.588Z,15.10
2023-09-28T03:28:12.244Z,14.97
2023-09-28T03:30:39.571Z,12.90
2023-09-28T03:33:06.822Z,13.53
2023-09-28T03:35:33.974Z,13.90
2023-09-28T03:38:01.165Z,16.70
2023-09-28T03:40:34.790Z,16.47
2023-09-28T03:43:02.468Z,14.33
2023-09-28T03:45:29.748Z,14.57
2023-09-28T03:47:57.048Z,14.37
2023-09-28T03:50:24.806Z,13.77
2023-09-28T03:52:52.398Z,12.73
2023-09-28T03:55:20.579Z,15.33
2023-09-28T03:57:48.061Z,12.60
2023-09-28T04:00:16.818Z,13.83
2023-09-28T04:02:47.585Z,14.30
2023-09-28T04:05:16.783Z,11.60
2023-09-28T04:07:44.715Z,12.57
2023-09-28T04:10:12.814Z,12.03
2023-09-28T04:12:40.363Z,12.53
2023-09-28T04:15:09.008Z,12.80
2023-09-28T04:17:36.453Z,12.27
2023-09-28T04:20:07.537Z,12.03
2023-09-28T04:22:34.998Z,14.93
2023-09-28T04:25:02.384Z,12.70
2023-09-28T04:27:29.603Z,12.40
2023-09-28T04:29:56.793Z,12.80
2023-09-28T04:32:24.034Z,12.40
2023-09-28T04:34:51.711Z,14.13
2023-09-28T04:37:19.728Z,12.50
2023-09-28T04:39:46.967Z,13.67
2023-09-28T04:42:16.470Z,15.10
2023-09-28T04:44:45.208Z,13.90
2023-09-28T04:47:12.999Z,13.13
2023-09-28T04:49:43.976Z,15.60
2023-09-28T04:52:11.537Z,13.77
2023-09-28T04:54:39.255Z,14.60
2023-09-28T04:57:06.625Z,15.67
2023-09-28T04:59:39.462Z,20.77
2023-09-28T05:02:07.000Z,16.57
2023-09-28T05:04:34.195Z,17.90
2023-09-28T05:07:01.521Z,15.13
2023-09-28T05:09:28.913Z,16.83
2023-09-28T05:12:00.487Z,15.70
2023-09-28T05:14:28.491Z,15.00
2023-09-28T05:16:56.022Z,15.20
2023-09-28T05:19:23.311Z,13.97
2023-09-28T05:21:50.866Z,15.93
2023-09-28T05:24:18.382Z,14.67
2023-09-28T05:26:45.626Z,16.10
2023-09-28T05:29:12.830Z,12.87
2023-09-28T05:31:40.191Z,14.10
2023-09-28T05:34:07.969Z,14.80
2023-09-28T05:36:36.028Z,14.47
2023-09-28T05:39:04.559Z,14.67
2023-09-28T05:41:32.410Z,14.10
2023-09-28T05:43:59.662Z,13.63
2023-09-28T05:46:26.891Z,14.97
2023-09-28T05:48:54.718Z,13.40
2023-09-28T05:51:21.954Z,14.10
2023-09-28T05:53:51.652Z,13.03
2023-09-28T05:56:18.899Z,14.43
2023-09-28T05:58:46.085Z,15.53
2023-09-28T06:01:14.897Z,15.20
2023-09-28T06:03:42.305Z,15.70
2023-09-28T06:06:16.329Z,13.60
2023-09-28T06:08:43.807Z,14.30
2023-09-28T06:11:14.621Z,14.80
2023-09-28T06:13:56.456Z,15.07
2023-09-28T06:16:29.819Z,15.37
2023-09-28T06:18:57.480Z,14.20
2023-09-28T06:21:24.713Z,14.60
2023-09-28T06:23:51.947Z,15.27
2023-09-28T06:26:34.776Z,17.97
2023-09-28T06:29:06.393Z,14.87
2023-09-28T06:31:34.337Z,16.63
2023-09-28T06:34:02.287Z,16.00
2023-09-28T06:39:00.365Z,15.63
2023-09-28T06:41:27.923Z,16.87
2023-09-28T06:43:55.156Z,17.67
2023-09-28T06:46:22.852Z,16.00
2023-09-28T06:48:50.776Z,17.53
2023-09-28T06:51:18.989Z,17.47
2023-09-28T06:53:46.115Z,17.50
2023-09-28T06:56:15.072Z,19.23
2023-09-28T06:58:43.090Z,18.33
2023-09-28T07:01:10.816Z,18.90
2023-09-28T07:03:41.550Z,18.33
2023-09-28T07:06:09.730Z,18.50
2023-09-28T07:08:36.860Z,17.53
2023-09-28T07:11:04.934Z,18.27
2023-09-28T07:13:32.660Z,18.30
2023-09-28T07:15:59.805Z,16.83
2023-09-28T07:18:27.789Z,20.70
2023-09-28T07:20:56.655Z,21.53
2023-09-28T07:23:23.920Z,20.03
2023-09-28T07:25:52.654Z,20.73
2023-09-28T07:28:21.255Z,18.27
2023-09-28T07:30:48.496Z,20.77
2023-09-28T07:33:17.441Z,20.43
2023-09-28T07:35:45.713Z,19.70
2023-09-28T07:38:13.219Z,19.37
2023-09-28T07:40:47.793Z,19.37
2023-09-28T07:43:16.374Z,18.83
2023-09-28T07:45:44.314Z,18.97
2023-09-28T07:48:12.336Z,19.47
2023-09-28T07:50:39.704Z,21.80
2023-09-28T07:53:06.949Z,20.57
2023-09-28T07:55:34.208Z,18.83
2023-09-28T07:58:19.002Z,22.20
2023-09-28T08:00:48.566Z,17.70
2023-09-28T08:03:16.310Z,21.40
2023-09-28T08:05:43.516Z,18.97
2023-09-28T08:08:16.688Z,19.83
2023-09-28T08:10:45.516Z,18.77
2023-09-28T08:13:14.883Z,21.57
2023-09-28T08:15:42.710Z,21.03
2023-09-28T08:18:10.809Z,22.07
2023-09-28T08:20:38.368Z,21.87
2023-09-28T08:23:06.430Z,19.90
2023-09-28T08:25:33.902Z,19.53
2023-09-28T08:28:01.083Z,21.50
2023-09-28T08:30:28.235Z,19.33
2023-09-28T08:32:55.532Z,19.63
2023-09-28T08:35:23.358Z,20.83
2023-09-28T08:37:50.652Z,17.90
2023-09-28T08:40:20.687Z,19.07
2023-09-28T08:42:48.606Z,18.77
2023-09-28T08:45:18.013Z,19.20
2023-09-28T08:47:50.078Z,18.80
2023-09-28T08:50:22.208Z,18.80
2023-09-28T08:52:49.563Z,20.57
2023-09-28T08:55:17.246Z,18.57
2023-09-28T08:57:44.668Z,20.13
2023-09-28T09:00:15.097Z,17.60
2023-09-28T09:02:45.503Z,18.93
2023-09-28T09:05:15.715Z,18.07
2023-09-28T09:07:44.027Z,17.97
2023-09-28T09:10:14.717Z,18.23
2023-09-28T09:12:41.981Z,20.60
2023-09-28T09:15:09.454Z,17.37
2023-09-28T09:17:37.394Z,15.80
2023-09-28T09:20:09.314Z,18.83
2023-09-28T09:22:45.494Z,16.53
2023-09-28T09:25:16.588Z,16.33
2023-09-28T09:27:44.409Z,17.08
2023-09-28T09:30:16.046Z,15.38
2023-09-28T09:32:47.996Z,15.98
2023-09-28T09:35:15.511Z,16.55
2023-09-28T09:37:45.225Z,15.88
2023-09-28T09:40:13.439Z,17.52
2023-09-28T09:42:42.765Z,15.90
2023-09-28T09:45:12.370Z,16.60
2023-09-28T09:47:50.206Z,18.02
2023-09-28T09:50:18.415Z,17.38
2023-09-28T09:52:45.993Z,16.70
2023-09-28T09:55:13.633Z,16.25
2023-09-28T09:57:43.733Z,16.13
2023-09-28T10:00:17.128Z,16.00
2023-09-28T10:02:44.717Z,14.90
2023-09-28T10:05:14.562Z,16.48
2023-09-28T10:10:13.534Z,15.68
2023-09-28T10:12:41.965Z,16.30
2023-09-28T10:15:09.620Z,15.40
2023-09-28T10:17:36.950Z,13.82
2023-09-28T10:20:05.258Z,16.27
2023-09-28T10:22:32.934Z,13.32
2023-09-28T10:25:00.142Z,15.23
2023-09-28T10:27:27.516Z,13.57
2023-09-28T10:30:13.877Z,14.77
2023-09-28T10:32:41.830Z,15.10
2023-09-28T10:35:22.183Z,15.68
2023-09-28T10:38:08.377Z,16.10
2023-09-28T10:40:48.448Z,14.80
2023-09-28T10:43:32.837Z,15.85
2023-09-28T10:46:06.424Z,14.95
2023-09-28T10:48:40.054Z,13.32
2023-09-28T10:51:14.034Z,16.55
2023-09-28T10:53:41.208Z,13.18
2023-09-28T10:56:08.493Z,15.88
2023-09-28T10:58:36.398Z,14.75
2023-09-28T11:01:06.177Z,13.85
2023-09-28T11:03:35.190Z,16.13
2023-09-28T11:06:06.774Z,14.85
2023-09-28T11:08:35.149Z,16.05
2023-09-28T11:11:03.129Z,13.85
2023-09-28T11:13:50.061Z,15.20
2023-09-28T11:16:18.575Z,14.73
2023-09-28T11:18:45.848Z,14.20
2023-09-28T11:21:13.293Z,14.45
2023-09-28T11:23:41.456Z,15.07
2023-09-28T11:26:12.259Z,15.60
2023-09-28T11:28:39.855Z,17.80
2023-09-28T11:31:15.909Z,18.73
2023-09-28T11:33:45.371Z,20.50
2023-09-28T11:36:23.401Z,18.75
2023-09-28T11:38:53.388Z,17.63
2023-09-28T11:41:22.515Z,19.35
2023-09-28T11:43:50.596Z,20.42
2023-09-28T11:46:24.921Z,19.98
2023-09-28T11:49:07.549Z,19.40
2023-09-28T11:51:35.109Z,21.65
2023-09-28T11:54:13.270Z,16.75
2023-09-28T11:56:43.689Z,17.70
2023-09-28T11:59:10.882Z,18.73
2023-09-28T12:01:38.164Z,20.35
2023-09-28T12:04:05.445Z,17.08
2023-09-28T12:06:32.663Z,15.20
2023-09-28T12:08:59.797Z,17.15
2023-09-28T12:11:27.008Z,18.50
2023-09-28T12:13:54.816Z,18.08
2023-09-28T12:16:24.100Z,17.63
2023-09-28T12:18:51.546Z,17.92
2023-09-28T12:21:18.822Z,17.30
2023-09-28T12:23:45.954Z,16.95
2023-09-28T12:26:14.563Z,17.67
2023-09-28T12:28:45.377Z,18.98
2023-09-28T12:31:13.548Z,18.50
2023-09-28T12:33:41.923Z,21.63
2023-09-28T12:36:10.656Z,20.80
2023-09-28T12:38:38.998Z,20.08
2023-09-28T12:41:06.324Z,19.92
2023-09-28T12:43:35.680Z,21.73
2023-09-28T12:46:04.425Z,22.17
2023-09-28T12:48:31.734Z,21.35
2023-09-28T12:50:59.119Z,22.33
2023-09-28T12:53:27.353Z,24.30
2023-09-28T12:55:55.232Z,22.25
2023-09-28T12:58:23.218Z,24.13
2023-09-28T13:00:51.756Z,21.02
2023-09-28T13:03:20.203Z,20.38
2023-09-28T13:05:47.490Z,22.40
2023-09-28T13:08:16.610Z,24.52
2023-09-28T13:10:44.123Z,23.30
2023-09-28T13:13:11.399Z,23.15
2023-09-28T13:15:39.554Z,23.75
2023-09-28T13:18:09.514Z,23.90
2023-09-28T13:20:40.481Z,24.00
2023-09-28T13:23:08.313Z,25.83
2023-09-28T13:25:36.344Z,24.60
2023-09-28T13:28:04.026Z,24.50
2023-09-28T13:30:31.286Z,26.37
2023-09-28T13:32:59.688Z,23.35
2023-09-28T13:35:27.070Z,24.90
2023-09-28T13:37:54.275Z,24.63
2023-09-28T13:40:27.230Z,22.38
2023-09-28T13:42:56.314Z,20.17
2023-09-28T13:45:23.676Z,22.40
2023-09-28T13:47:51.469Z,22.57
2023-09-28T13:50:18.742Z,21.73
2023-09-28T13:52:46.904Z,24.43
2023-09-28T13:55:17.741Z,21.57
2023-09-28T13:57:45.349Z,19.58
2023-09-28T14:00:22.861Z,19.83
2023-09-28T14:02:50.165Z,19.45
2023-09-28T14:05:17.907Z,17.30
2023-09-28T14:07:45.418Z,18.00
2023-09-28T14:10:13.775Z,19.33
2023-09-28T14:12:46.057Z,21.13
2023-09-28T14:15:13.549Z,17.40
2023-09-28T14:17:41.453Z,17.98
2023-09-28T14:20:11.893Z,16.23
2023-09-28T14:22:39.889Z,16.10
2023-09-28T14:25:10.065Z,16.85
2023-09-28T14:27:37.445Z,15.50
2023-09-28T14:30:07.486Z,15.75
2023-09-28T14:32:37.988Z,19.67
2023-09-28T14:35:05.650Z,15.35
2023-09-28T14:37:33.712Z,15.27
2023-09-28T14:40:01.497Z,18.65
2023-09-28T14:42:29.070Z,15.43
2023-09-28T14:44:57.197Z,15.93
2023-09-28T14:47:24.529Z,16.25
2023-09-28T14:49:51.739Z,18.20
2023-09-28T14:52:18.992Z,16.83
2023-09-28T14:54:46.193Z,18.13
2023-09-28T14:57:13.374Z,16.73
2023-09-28T14:59:40.623Z,17.05
2023-09-28T15:02:08.005Z,18.55
2023-09-28T15:04:35.122Z,15.88
2023-09-28T15:07:02.314Z,17.60
2023-09-28T15:09:29.546Z,14.95
2023-09-28T15:11:57.342Z,18.30
2023-09-28T15:14:25.265Z,16.10
2023-09-28T15:16:53.698Z,18.05
2023-09-28T15:19:20.941Z,15.48
2023-09-28T15:21:48.095Z,18.88
2023-09-28T15:24:15.317Z,17.30
2023-09-28T15:26:42.545Z,18.05
2023-09-28T15:29:10.332Z,17.67
2023-09-28T15:31:41.541Z,21.20
2023-09-28T15:34:08.717Z,22.33
2023-09-28T15:36:36.684Z,20.25
2023-09-28T15:39:04.002Z,15.80
2023-09-28T15:41:38.069Z,21.07
2023-09-28T15:44:06.148Z,21.70
2023-09-28T15:46:33.829Z,17.30
2023-09-28T15:49:01.593Z,17.93
2023-09-28T15:51:28.802Z,19.50
2023-09-28T15:53:56.498Z,19.90
2023-09-28T15:56:23.930Z,20.53
2023-09-28T15:58:51.214Z,20.07
2023-09-28T16:01:19.638Z,20.40
2023-09-28T16:03:48.614Z,17.00
2023-09-28T16:06:16.471Z,16.57
2023-09-28T16:08:43.654Z,19.60
2023-09-28T16:11:11.233Z,17.67
2023-09-28T16:13:38.400Z,15.73
2023-09-28T16:16:06.036Z,17.37
2023-09-28T16:18:33.720Z,12.77
2023-09-28T16:21:01.337Z,17.37
2023-09-28T16:23:28.944Z,13.00
2023-09-28T16:25:56.091Z,13.30
2023-09-28T16:28:23.252Z,13.30
2023-09-28T16:30:50.440Z,13.43
2023-09-28T16:33:17.698Z,13.93
2023-09-28T16:35:44.903Z,12.13
2023-09-28T16:38:13.117Z,10.03
2023-09-28T16:40:40.693Z,14.93
2023-09-28T16:43:07.865Z,9.93
2023-09-28T16:45:35.115Z,10.40
2023-09-28T16:48:02.599Z,11.77
2023-09-28T16:50:30.243Z,11.57
2023-09-28T16:53:02.494Z,12.37
2023-09-28T16:55:32.884Z,10.23
2023-09-28T16:58:00.375Z,11.73
2023-09-28T17:00:28.030Z,11.23
2023-09-28T17:02:55.718Z,11.77
2023-09-28T17:05:23.196Z,11.17
2023-09-28T17:07:51.400Z,11.50
2023-09-28T17:10:23.288Z,14.57
2023-09-28T17:12:51.021Z,12.20
2023-09-28T17:15:18.159Z,14.10
2023-09-28T17:17:45.397Z,13.60
2023-09-28T17:20:13.444Z,12.60
2023-09-28T17:22:40.836Z,14.30
2023-09-28T17:25:10.194Z,13.17
2023-09-28T17:27:37.513Z,14.30
2023-09-28T17:30:06.126Z,15.50
2023-09-28T17:32:33.415Z,14.30
2023-09-28T17:35:00.689Z,13.10
2023-09-28T17:37:27.835Z,11.00
2023-09-28T17:39:55.030Z,11.53
2023-09-28T17:42:22.189Z,15.33
2023-09-28T17:44:49.414Z,11.70
2023-09-28T17:47:16.617Z,10.70
2023-09-28T17:49:44.112Z,13.27
2023-09-28T17:52:11.288Z,16.27
2023-09-28T17:54:39.315Z,13.97
2023-09-28T17:57:06.692Z,11.70
2023-09-28T17:59:33.948Z,11.97
2023-09-28T18:02:02.320Z,10.33
2023-09-28T18:04:29.621Z,10.73
2023-09-28T18:06:59.933Z,11.67
2023-09-28T18:09:27.206Z,10.77
2023-09-28T18:11:54.568Z,15.10
2023-09-28T18:14:21.747Z,14.33
2023-09-28T18:16:50.450Z,11.00
2023-09-28T18:19:18.245Z,11.27
2023-09-28T18:21:45.579Z,5.97
2023-09-28T18:24:12.794Z,8.63
2023-09-28T18:26:40.009Z,10.43
2023-09-28T18:29:08.890Z,9.10
2023-09-28T18:31:36.218Z,10.97
2023-09-28T18:34:03.559Z,8.70
2023-09-28T18:36:30.785Z,8.80
2023-09-28T18:39:13.538Z,9.60
2023-09-28T18:41:48.793Z,8.87
2023-09-28T18:44:17.490Z,10.07
2023-09-28T18:46:44.827Z,9.33
2023-09-28T18:49:12.112Z,10.00
2023-09-28T18:51:39.298Z,10.77
2023-09-28T18:54:06.744Z,9.10
2023-09-28T18:56:34.080Z,13.47
2023-09-28T18:59:01.422Z,9.97
2023-09-28T19:01:28.590Z,11.93
2023-09-28T19:03:56.024Z,11.50
2023-09-28T19:06:23.420Z,9.90
2023-09-28T19:08:50.760Z,8.67
2023-09-28T19:11:18.143Z,12.07
2023-09-28T19:13:48.332Z,9.60
2023-09-28T19:16:15.554Z,12.43
2023-09-28T19:18:43.004Z,8.87
2023-09-28T19:21:10.647Z,10.27
2023-09-28T19:23:37.855Z,11.33
2023-09-28T19:26:06.161Z,10.10
2023-09-28T19:28:33.337Z,12.30
2023-09-28T19:31:00.589Z,10.90
2023-09-28T19:33:28.747Z,9.90
2023-09-28T19:35:56.038Z,11.10
2023-09-28T19:38:23.297Z,14.43
2023-09-28T19:40:50.684Z,12.33
2023-09-28T19:43:17.858Z,9.97
2023-09-28T19:45:45.066Z,10.07
2023-09-28T19:48:12.363Z,13.40
2023-09-28T19:50:42.824Z,11.30
2023-09-28T19:53:12.266Z,11.30
2023-09-28T19:55:42.866Z,12.23
2023-09-28T19:58:10.221Z,11.20
2023-09-28T20:00:39.510Z,10.27
2023-09-28T20:03:07.172Z,10.03
2023-09-28T20:05:34.506Z,12.17
2023-09-28T20:08:01.811Z,9.37
2023-09-28T20:10:29.419Z,8.33
2023-09-28T20:13:00.188Z,10.70
2023-09-28T20:15:28.234Z,10.23
2023-09-28T20:17:55.539Z,8.43
2023-09-28T20:20:22.911Z,9.87
2023-09-28T20:22:57.417Z,10.47
2023-09-28T20:25:25.293Z,13.30
2023-09-28T20:27:52.748Z,10.97
2023-09-28T20:30:19.925Z,11.43
2023-09-28T20:32:47.697Z,12.10
2023-09-28T20:35:15.291Z,12.70
2023-09-28T20:37:42.783Z,12.80
2023-09-28T20:40:10.658Z,12.17
2023-09-28T20:42:38.319Z,11.47
2023-09-28T20:45:05.882Z,9.60
2023-09-28T20:47:35.982Z,11.70
2023-09-28T20:50:05.052Z,14.20
2023-09-28T20:52:32.327Z,10.73
2023-09-28T20:54:59.514Z,12.83
2023-09-28T20:57:27.100Z,11.47
2023-09-28T20:59:57.332Z,10.70
2023-09-28T21:02:24.800Z,11.07
2023-09-28T21:04:52.550Z,10.47
2023-09-28T21:07:19.866Z,9.37
2023-09-28T21:09:47.681Z,10.87
2023-09-28T21:12:15.173Z,13.30
2023-09-28T21:14:42.738Z,12.30
2023-09-28T21:17:09.897Z,12.77
2023-09-28T21:19:37.127Z,10.90
2023-09-28T21:22:04.256Z,13.07
2023-09-28T21:24:31.386Z,10.17
2023-09-28T21:26:58.528Z,12.53
2023-09-28T21:29:25.701Z,11.43
2023-09-28T21:31:53.059Z,10.40
2023-09-28T21:34:20.292Z,11.83
2023-09-28T21:36:47.540Z,14.10
2023-09-28T21:39:14.703Z,11.43
2023-09-28T21:41:41.933Z,11.93
2023-09-28T21:44:09.273Z,10.90
2023-09-28T21:46:36.424Z,11.23
2023-09-28T21:49:03.561Z,10.70
2023-09-28T21:51:30.672Z,10.40
2023-09-28T21:53:57.839Z,9.93
2023-09-28T21:56:25.674Z,11.47
2023-09-28T21:58:57.078Z,12.90
2023-09-28T22:01:24.542Z,10.23
2023-09-28T22:03:51.809Z,13.10
2023-09-28T22:06:20.180Z,10.97
2023-09-28T22:08:47.349Z,9.43
2023-09-28T22:11:14.487Z,11.27
2023-09-28T22:13:43.710Z,12.20
2023-09-28T22:16:10.941Z,13.80
2023-09-28T22:18:38.235Z,10.13
2023-09-28T22:21:05.524Z,13.30
2023-09-28T22:23:32.674Z,11.13
2023-09-28T22:25:59.904Z,13.03
2023-09-28T22:28:27.142Z,10.70
2023-09-28T22:30:54.273Z,13.63
2023-09-28T22:33:21.502Z,8.50
2023-09-28T22:35:48.700Z,9.90
2023-09-28T22:38:15.873Z,10.43
2023-09-28T22:40:43.237Z,11.23
2023-09-28T22:43:10.467Z,11.80
2023-09-28T22:45:37.910Z,12.20
2023-09-28T22:48:05.368Z,13.20
2023-09-28T22:50:33.615Z,10.40
2023-09-28T22:53:00.785Z,7.53
2023-09-28T22:55:28.327Z,11.30
2023-09-28T22:57:55.649Z,12.87
2023-09-28T23:00:23.344Z,9.93
2023-09-28T23:02:50.820Z,8.43
2023-09-28T23:05:18.696Z,9.97
2023-09-28T23:07:45.878Z,11.30
2023-09-28T23:10:13.609Z,11.37
2023-09-28T23:12:41.914Z,10.70
2023-09-28T23:15:12.356Z,12.20
2023-09-28T23:17:39.757Z,11.17
2023-09-28T23:20:11.176Z,10.70
2023-09-28T23:22:42.372Z,10.23
2023-09-28T23:25:13.530Z,7.60
2023-09-28T23:27:43.490Z,13.70
2023-09-28T23:30:16.538Z,10.97
2023-09-28T23:32:43.732Z,11.07
2023-09-28T23:35:10.928Z,12.00
2023-09-28T23:37:38.128Z,11.30
2023-09-28T23:40:08.639Z,10.23
2023-09-28T23:42:35.917Z,8.43
2023-09-28T23:45:03.051Z,10.80
2023-09-28T23:47:30.300Z,13.23
2023-09-28T23:49:57.469Z,10.53
2023-09-28T23:52:24.615Z,13.43
2023-09-28T23:54:51.744Z,10.90
2023-09-28T23:57:18.858Z,10.47
2023-09-28T23:59:46.030Z,12.33
